Time;durP1;ratioP1;P1;durP2;ratioP2;P2;SDS_P1;SDS_P2;PMS_P1;PMS_P2;Temp;Humidity;BMP_temperature;BMP_pressure;BME280_temperature;BME280_humidity;BME280_pressure;Samples;Min_cycle;Max_cycle;Signal;HPM_P1;HPM_P2
2022/12/12 00:01:00;;;;;;;25.13;15.13;;;;;;;;;;4993805;28;20227;-66
2022/12/12 00:03:25;;;;;;;27.70;15.47;;;;;;;;;;4995048;28;20296;-66
2022/12/12 00:05:56;;;;;;;25.60;16.13;;;;;;;;;;4994571;28;20221;-66
2022/12/12 00:08:21;;;;;;;25.43;15.00;;;;;;;;;;4995245;28;20700;-66
2022/12/12 00:10:47;;;;;;;24.27;15.60;;;;;;;;;;5008228;28;20247;-66
2022/12/12 00:13:12;;;;;;;24.90;14.77;;;;;;;;;;5013703;28;20286;-65
2022/12/12 00:15:38;;;;;;;25.10;15.63;;;;;;;;;;5008103;28;20300;-66
2022/12/12 00:18:03;;;;;;;25.10;15.57;;;;;;;;;;4993802;28;20224;-65
2022/12/12 00:20:28;;;;;;;28.23;16.57;;;;;;;;;;4994666;28;20220;-65
2022/12/12 00:22:53;;;;;;;25.33;15.80;;;;;;;;;;4995211;28;20224;-66
2022/12/12 00:25:19;;;;;;;24.60;15.63;;;;;;;;;;4994824;28;20292;-66
2022/12/12 00:27:44;;;;;;;25.60;15.57;;;;;;;;;;4994378;28;20228;-65
2022/12/12 00:30:09;;;;;;;26.93;16.63;;;;;;;;;;4994446;28;20271;-65
2022/12/12 00:32:35;;;;;;;26.37;15.93;;;;;;;;;;4994950;28;20216;-65
2022/12/12 00:35:00;;;;;;;24.70;15.40;;;;;;;;;;4997554;28;20703;-66
2022/12/12 00:37:25;;;;;;;25.27;15.87;;;;;;;;;;4994513;28;20205;-65
2022/12/12 00:39:50;;;;;;;25.63;15.50;;;;;;;;;;5008257;28;20221;-65
2022/12/12 00:42:16;;;;;;;23.47;14.83;;;;;;;;;;5008470;28;20337;-65
2022/12/12 00:44:41;;;;;;;24.07;15.13;;;;;;;;;;4994666;28;20217;-66
2022/12/12 00:47:06;;;;;;;26.00;15.77;;;;;;;;;;5000164;28;20291;-65
2022/12/12 00:49:32;;;;;;;24.97;15.50;;;;;;;;;;4994150;28;20240;-66
2022/12/12 00:51:57;;;;;;;26.03;15.63;;;;;;;;;;4994678;28;20229;-66
2022/12/12 00:54:22;;;;;;;23.00;14.80;;;;;;;;;;4994118;28;20209;-65
2022/12/12 00:56:48;;;;;;;26.50;16.00;;;;;;;;;;5000816;28;20275;-66
2022/12/12 00:59:13;;;;;;;24.70;15.10;;;;;;;;;;4998319;28;20299;-66
2022/12/12 01:01:39;;;;;;;24.63;14.97;;;;;;;;;;5013850;28;20212;-65
2022/12/12 01:04:04;;;;;;;23.20;14.87;;;;;;;;;;5012537;28;20233;-65
2022/12/12 01:06:29;;;;;;;25.40;15.73;;;;;;;;;;5014035;28;20216;-65
2022/12/12 01:08:55;;;;;;;26.13;15.47;;;;;;;;;;5013888;28;20238;-66
2022/12/12 01:11:20;;;;;;;25.33;14.93;;;;;;;;;;5012907;28;20224;-66
2022/12/12 01:13:46;;;;;;;25.83;15.37;;;;;;;;;;5013683;28;20208;-66
2022/12/12 01:16:11;;;;;;;23.73;14.90;;;;;;;;;;4983907;28;20300;-65
2022/12/12 01:18:36;;;;;;;24.13;15.17;;;;;;;;;;4981243;28;20221;-65
2022/12/12 01:21:02;;;;;;;26.47;15.33;;;;;;;;;;4974363;28;20218;-65
2022/12/12 01:23:27;;;;;;;25.07;15.33;;;;;;;;;;4973933;28;20229;-66
2022/12/12 01:26:00;;;;;;;26.40;15.57;;;;;;;;;;4973304;28;20237;-66
2022/12/12 01:28:25;;;;;;;24.37;15.07;;;;;;;;;;4974072;28;20530;-66
2022/12/12 01:30:51;;;;;;;24.23;15.33;;;;;;;;;;4973917;28;20277;-66
2022/12/12 01:33:16;;;;;;;25.77;15.47;;;;;;;;;;4973802;28;20234;-65
2022/12/12 01:35:41;;;;;;;27.10;15.53;;;;;;;;;;4974523;28;20575;-66
2022/12/12 01:38:07;;;;;;;26.37;15.13;;;;;;;;;;4973145;28;20704;-65
2022/12/12 01:40:32;;;;;;;28.27;15.37;;;;;;;;;;4973031;28;20217;-65
2022/12/12 01:42:58;;;;;;;25.03;15.47;;;;;;;;;;4974301;28;20363;-66
2022/12/12 01:45:42;;;;;;;23.77;14.83;;;;;;;;;;4972913;28;20245;-66
2022/12/12 01:48:07;;;;;;;25.73;14.97;;;;;;;;;;4973364;28;20221;-65
2022/12/12 01:50:32;;;;;;;26.00;15.13;;;;;;;;;;4974271;28;20221;-66
2022/12/12 01:52:57;;;;;;;27.40;16.43;;;;;;;;;;4973238;28;20338;-65
2022/12/12 01:55:23;;;;;;;26.00;15.40;;;;;;;;;;4973629;28;20234;-66
2022/12/12 01:57:50;;;;;;;22.67;14.40;;;;;;;;;;4988587;28;20225;-66
2022/12/12 02:00:15;;;;;;;25.67;15.63;;;;;;;;;;4995537;28;20708;-65
2022/12/12 02:02:41;;;;;;;24.73;14.63;;;;;;;;;;5013136;28;20259;-66
2022/12/12 02:05:08;;;;;;;21.27;13.60;;;;;;;;;;5002728;28;20228;-65
2022/12/12 02:07:33;;;;;;;23.10;14.20;;;;;;;;;;5012460;28;20583;-66
2022/12/12 02:09:59;;;;;;;24.73;14.70;;;;;;;;;;5003655;28;20205;-66
2022/12/12 02:12:24;;;;;;;26.70;14.90;;;;;;;;;;5012185;28;20239;-66
2022/12/12 02:14:50;;;;;;;24.40;14.73;;;;;;;;;;5012593;28;20696;-66
2022/12/12 02:17:21;;;;;;;24.73;14.73;;;;;;;;;;4992640;28;20217;-65
2022/12/12 02:20:05;;;;;;;23.97;14.53;;;;;;;;;;4992486;28;20224;-66
2022/12/12 02:22:46;;;;;;;24.10;14.47;;;;;;;;;;4973445;28;20214;-66
2022/12/12 02:25:27;;;;;;;23.80;14.93;;;;;;;;;;4972125;28;20214;-65
2022/12/12 02:27:57;;;;;;;24.97;15.37;;;;;;;;;;4973192;28;20222;-66
2022/12/12 02:30:29;;;;;;;24.23;15.20;;;;;;;;;;4972260;28;20210;-65
2022/12/12 02:32:54;;;;;;;25.33;14.87;;;;;;;;;;4972241;28;20214;-66
2022/12/12 02:35:19;;;;;;;21.70;14.07;;;;;;;;;;4972295;28;20228;-65
2022/12/12 02:37:49;;;;;;;22.43;14.43;;;;;;;;;;4973702;28;20214;-66
2022/12/12 02:40:14;;;;;;;22.27;14.03;;;;;;;;;;4973144;28;20723;-65
2022/12/12 02:42:42;;;;;;;22.77;13.53;;;;;;;;;;4976809;28;20209;-66
2022/12/12 02:45:19;;;;;;;18.83;12.10;;;;;;;;;;4980218;28;20212;-65
2022/12/12 02:47:46;;;;;;;22.37;13.97;;;;;;;;;;4977161;28;20213;-66
2022/12/12 02:50:13;;;;;;;21.93;13.30;;;;;;;;;;4976926;28;20296;-66
2022/12/12 02:52:38;;;;;;;20.03;12.67;;;;;;;;;;4976199;28;20604;-66
2022/12/12 02:55:03;;;;;;;21.83;12.77;;;;;;;;;;4974862;28;20352;-65
2022/12/12 02:57:29;;;;;;;21.67;13.13;;;;;;;;;;5005740;28;20208;-65
2022/12/12 02:59:55;;;;;;;21.00;13.07;;;;;;;;;;5006261;28;20229;-66
2022/12/12 03:02:26;;;;;;;21.63;12.83;;;;;;;;;;4994197;28;20220;-65
2022/12/12 03:07:46;;;;;;;22.27;13.13;;;;;;;;;;4996387;28;20221;-65
2022/12/12 03:10:11;;;;;;;22.93;13.70;;;;;;;;;;4995416;28;20221;-65
2022/12/12 03:12:39;;;;;;;20.93;12.97;;;;;;;;;;4996418;28;20220;-66
2022/12/12 03:15:08;;;;;;;22.00;13.53;;;;;;;;;;4994919;28;20299;-65
2022/12/12 03:17:37;;;;;;;22.70;13.60;;;;;;;;;;4994531;28;20220;-66
2022/12/12 03:20:10;;;;;;;23.57;13.70;;;;;;;;;;4995729;28;20236;-65
2022/12/12 03:22:35;;;;;;;21.37;13.53;;;;;;;;;;4996117;28;20283;-66
2022/12/12 03:25:01;;;;;;;20.60;13.37;;;;;;;;;;4995016;28;20271;-64
2022/12/12 03:27:28;;;;;;;21.57;13.60;;;;;;;;;;4996216;28;20220;-66
2022/12/12 03:29:54;;;;;;;22.07;13.20;;;;;;;;;;4995694;28;20691;-66
2022/12/12 03:32:22;;;;;;;22.23;13.90;;;;;;;;;;4994354;28;20221;-66
2022/12/12 03:34:49;;;;;;;21.07;13.43;;;;;;;;;;4996330;28;20209;-66
2022/12/12 03:37:16;;;;;;;23.70;14.10;;;;;;;;;;4993497;28;20209;-65
2022/12/12 03:39:43;;;;;;;23.63;13.73;;;;;;;;;;4994890;28;20271;-66
2022/12/12 03:42:12;;;;;;;23.40;14.10;;;;;;;;;;4995269;28;20316;-65
2022/12/12 03:44:43;;;;;;;23.10;13.53;;;;;;;;;;4994155;28;20220;-65
2022/12/12 03:47:10;;;;;;;24.13;14.13;;;;;;;;;;4984945;28;20218;-65
2022/12/12 03:49:41;;;;;;;26.53;14.30;;;;;;;;;;4975262;28;20224;-66
2022/12/12 03:52:09;;;;;;;23.43;14.00;;;;;;;;;;4972255;28;20325;-65
2022/12/12 03:54:36;;;;;;;22.80;13.63;;;;;;;;;;4976305;28;20205;-65
2022/12/12 03:57:06;;;;;;;22.33;13.73;;;;;;;;;;4988702;28;20213;-64
2022/12/12 03:59:33;;;;;;;21.83;14.20;;;;;;;;;;4991525;28;20316;-66
2022/12/12 04:02:08;;;;;;;23.83;13.90;;;;;;;;;;4986681;28;20948;-66
2022/12/12 04:04:35;;;;;;;22.57;14.27;;;;;;;;;;4982456;28;20233;-65
2022/12/12 04:07:02;;;;;;;24.07;14.40;;;;;;;;;;4982845;28;20225;-62
2022/12/12 04:15:19;;;;;;;23.57;14.87;;;;;;;;;;4978658;28;20228;-64
2022/12/12 04:17:57;;;;;;;24.23;14.93;;;;;;;;;;4966306;28;20748;-65
2022/12/12 04:23:31;;;;;;;23.80;13.93;;;;;;;;;;4982558;28;20746;-66
2022/12/12 04:28:42;;;;;;;24.00;14.10;;;;;;;;;;4991098;28;20271;-65
2022/12/12 04:31:07;;;;;;;25.60;15.03;;;;;;;;;;4984770;28;20220;-65
2022/12/12 04:33:36;;;;;;;25.83;14.40;;;;;;;;;;4983199;28;20212;-66
2022/12/12 04:36:01;;;;;;;23.30;14.33;;;;;;;;;;4982893;28;20655;-64
2022/12/12 04:38:26;;;;;;;21.97;13.23;;;;;;;;;;4976897;28;20223;-65
2022/12/12 04:40:53;;;;;;;23.83;13.90;;;;;;;;;;4976356;28;20279;-65
2022/12/12 04:43:23;;;;;;;22.93;13.80;;;;;;;;;;4976680;28;20206;-65
2022/12/12 04:45:49;;;;;;;22.37;14.27;;;;;;;;;;4979771;28;20217;-66
2022/12/12 04:48:15;;;;;;;22.80;14.30;;;;;;;;;;4981841;28;20209;-65
2022/12/12 04:50:41;;;;;;;26.77;14.90;;;;;;;;;;4984613;28;20227;-65
2022/12/12 04:53:09;;;;;;;22.57;13.57;;;;;;;;;;4983796;28;20209;-65
2022/12/12 04:55:35;;;;;;;24.10;13.57;;;;;;;;;;4981702;28;20300;-65
2022/12/12 04:58:00;;;;;;;24.87;14.50;;;;;;;;;;4965151;28;20325;-63
2022/12/12 05:00:26;;;;;;;25.37;14.60;;;;;;;;;;4969289;28;20226;-65
2022/12/12 05:02:54;;;;;;;24.80;14.90;;;;;;;;;;4988704;28;20221;-65
2022/12/12 05:05:27;;;;;;;24.40;14.47;;;;;;;;;;4974421;28;20314;-65
2022/12/12 05:07:54;;;;;;;23.93;14.80;;;;;;;;;;4975337;28;20225;-65
2022/12/12 05:10:20;;;;;;;26.33;15.13;;;;;;;;;;4993193;28;20221;-65
2022/12/12 05:12:46;;;;;;;23.30;14.23;;;;;;;;;;4994329;28;20574;-65
2022/12/12 05:15:11;;;;;;;25.30;15.60;;;;;;;;;;4992508;28;20216;-65
2022/12/12 05:17:40;;;;;;;22.80;14.30;;;;;;;;;;4992189;28;20221;-65
2022/12/12 05:20:05;;;;;;;28.20;15.83;;;;;;;;;;4992386;28;20356;-65
2022/12/12 05:22:31;;;;;;;26.43;14.83;;;;;;;;;;4993412;28;20296;-65
2022/12/12 05:24:56;;;;;;;25.80;15.50;;;;;;;;;;4959605;28;20507;-65
2022/12/12 05:27:21;;;;;;;25.33;14.40;;;;;;;;;;4956567;28;20596;-65
2022/12/12 05:29:46;;;;;;;22.47;13.73;;;;;;;;;;4959287;28;20257;-65
2022/12/12 05:32:12;;;;;;;26.83;15.30;;;;;;;;;;4983354;28;20236;-65
2022/12/12 05:34:37;;;;;;;27.00;15.13;;;;;;;;;;4983824;28;20669;-65
2022/12/12 05:37:02;;;;;;;23.43;14.20;;;;;;;;;;4973340;28;20259;-64
2022/12/12 05:39:27;;;;;;;24.33;14.37;;;;;;;;;;4964295;28;20230;-65
2022/12/12 05:41:53;;;;;;;22.80;14.00;;;;;;;;;;4964699;28;20336;-65
2022/12/12 05:44:18;;;;;;;23.90;13.63;;;;;;;;;;4981850;28;20244;-65
2022/12/12 05:46:44;;;;;;;23.53;14.20;;;;;;;;;;4961898;28;20210;-65
2022/12/12 05:49:09;;;;;;;24.23;14.20;;;;;;;;;;4974854;28;20243;-65
2022/12/12 05:51:34;;;;;;;25.23;14.30;;;;;;;;;;4973052;28;20624;-65
2022/12/12 05:54:00;;;;;;;23.10;13.97;;;;;;;;;;4963842;28;20209;-65
2022/12/12 05:56:25;;;;;;;22.37;13.63;;;;;;;;;;4983726;28;20372;-65
2022/12/12 05:58:50;;;;;;;24.17;14.87;;;;;;;;;;4983291;28;20233;-65
2022/12/12 06:01:16;;;;;;;24.10;13.67;;;;;;;;;;5002188;28;20220;-64
2022/12/12 06:03:41;;;;;;;26.33;14.07;;;;;;;;;;5003137;28;20243;-64
2022/12/12 06:06:06;;;;;;;25.37;14.40;;;;;;;;;;5001826;28;20226;-64
2022/12/12 06:08:32;;;;;;;25.73;14.13;;;;;;;;;;4991262;28;20328;-64
2022/12/12 06:10:57;;;;;;;45.23;24.90;;;;;;;;;;4975482;28;20220;-65
2022/12/12 06:13:22;;;;;;;85.03;40.13;;;;;;;;;;4993629;28;20559;-65
2022/12/12 06:15:47;;;;;;;40.80;22.90;;;;;;;;;;4991535;28;20212;-65
2022/12/12 06:18:13;;;;;;;34.60;19.90;;;;;;;;;;4983154;28;20725;-64
2022/12/12 06:20:38;;;;;;;34.47;19.23;;;;;;;;;;4982897;28;20664;-65
2022/12/12 06:23:04;;;;;;;27.07;15.97;;;;;;;;;;4983625;28;20743;-64
2022/12/12 06:25:30;;;;;;;28.30;16.70;;;;;;;;;;4985321;28;20247;-65
2022/12/12 06:27:55;;;;;;;23.93;14.47;;;;;;;;;;4986696;28;20244;-65
2022/12/12 06:30:20;;;;;;;21.87;13.40;;;;;;;;;;4999578;28;20258;-65
2022/12/12 06:32:46;;;;;;;24.57;14.57;;;;;;;;;;4986589;28;20552;-65
2022/12/12 06:35:11;;;;;;;24.20;14.27;;;;;;;;;;4993916;28;20564;-65
2022/12/12 06:37:37;;;;;;;24.00;14.57;;;;;;;;;;4983058;28;20706;-65
2022/12/12 06:40:03;;;;;;;28.07;14.53;;;;;;;;;;4985906;28;20864;-64
2022/12/12 06:42:28;;;;;;;28.23;15.03;;;;;;;;;;4991288;28;20622;-64
2022/12/12 06:44:53;;;;;;;26.57;15.33;;;;;;;;;;4994133;28;20304;-63
2022/12/12 06:47:19;;;;;;;26.63;17.43;;;;;;;;;;4999661;28;20417;-64
2022/12/12 06:49:44;;;;;;;27.57;15.50;;;;;;;;;;4992776;28;20220;-62
2022/12/12 06:52:09;;;;;;;25.48;16.73;;;;;;;;;;5001225;28;20453;-62
2022/12/12 06:54:34;;;;;;;28.83;18.57;;;;;;;;;;4993287;28;20421;-64
2022/12/12 06:57:00;;;;;;;28.27;15.97;;;;;;;;;;4997549;28;20211;-63
2022/12/12 06:59:28;;;;;;;29.43;16.53;;;;;;;;;;5001369;28;20227;-64
2022/12/12 07:01:54;;;;;;;26.13;14.97;;;;;;;;;;5002262;28;20231;-63
2022/12/12 07:04:19;;;;;;;25.93;14.90;;;;;;;;;;5000811;28;20225;-64
2022/12/12 07:06:45;;;;;;;26.67;15.90;;;;;;;;;;5002217;28;20269;-63
2022/12/12 07:09:10;;;;;;;25.40;15.47;;;;;;;;;;5000286;28;20691;-63
2022/12/12 07:11:36;;;;;;;26.23;15.23;;;;;;;;;;5000779;28;20205;-64
2022/12/12 07:14:04;;;;;;;28.87;15.83;;;;;;;;;;4991115;28;20205;-64
2022/12/12 07:16:30;;;;;;;31.23;17.37;;;;;;;;;;4991418;28;20312;-63
2022/12/12 07:18:56;;;;;;;27.20;15.93;;;;;;;;;;4991942;28;20316;-65
2022/12/12 07:21:21;;;;;;;28.90;15.87;;;;;;;;;;4981017;28;20225;-65
2022/12/12 07:23:46;;;;;;;27.90;15.90;;;;;;;;;;4982350;28;20209;-64
2022/12/12 07:26:12;;;;;;;31.40;16.30;;;;;;;;;;4982331;28;20293;-64
2022/12/12 07:28:38;;;;;;;26.77;15.73;;;;;;;;;;4985650;28;20245;-64
2022/12/12 07:31:05;;;;;;;27.97;15.60;;;;;;;;;;5001896;28;20232;-64
2022/12/12 07:33:30;;;;;;;25.03;15.03;;;;;;;;;;5001330;28;20291;-64
2022/12/12 07:35:57;;;;;;;28.47;15.43;;;;;;;;;;4996051;28;20304;-67
2022/12/12 07:38:23;;;;;;;28.23;15.27;;;;;;;;;;4991691;28;20300;-65
2022/12/12 07:40:48;;;;;;;28.73;14.93;;;;;;;;;;4992981;28;20297;-66
2022/12/12 07:43:13;;;;;;;29.80;15.90;;;;;;;;;;4988023;28;20221;-65
2022/12/12 07:45:42;;;;;;;26.77;15.27;;;;;;;;;;5003218;28;20333;-66
2022/12/12 07:48:07;;;;;;;28.40;15.50;;;;;;;;;;4997390;28;20197;-65
2022/12/12 07:50:32;;;;;;;26.87;15.10;;;;;;;;;;5008320;28;20569;-66
2022/12/12 07:52:58;;;;;;;26.37;15.73;;;;;;;;;;5009504;28;20239;-66
2022/12/12 07:55:23;;;;;;;28.47;15.53;;;;;;;;;;5014676;28;20215;-66
2022/12/12 07:57:48;;;;;;;27.87;15.20;;;;;;;;;;4994788;28;20672;-65
2022/12/12 08:00:14;;;;;;;29.60;16.63;;;;;;;;;;4999794;28;20217;-65
2022/12/12 08:02:40;;;;;;;28.57;15.67;;;;;;;;;;4995551;28;20213;-66
2022/12/12 08:05:05;;;;;;;28.87;16.60;;;;;;;;;;4991873;28;20587;-65
2022/12/12 08:07:31;;;;;;;28.97;16.50;;;;;;;;;;4995327;28;20209;-65
2022/12/12 08:09:56;;;;;;;30.10;16.83;;;;;;;;;;4995379;28;20707;-66
2022/12/12 08:12:22;;;;;;;30.73;16.00;;;;;;;;;;4994228;28;20216;-66
2022/12/12 08:14:47;;;;;;;31.87;16.70;;;;;;;;;;4995354;28;20213;-66
2022/12/12 08:17:13;;;;;;;36.27;18.53;;;;;;;;;;4994725;28;20224;-65
2022/12/12 08:19:38;;;;;;;34.67;18.50;;;;;;;;;;4994571;28;20223;-65
2022/12/12 08:22:03;;;;;;;34.80;17.73;;;;;;;;;;4994733;28;20296;-65
2022/12/12 08:24:29;;;;;;;29.83;17.30;;;;;;;;;;4995035;28;20213;-66
2022/12/12 08:26:54;;;;;;;30.87;16.80;;;;;;;;;;4994093;28;20245;-65
2022/12/12 08:29:19;;;;;;;32.77;18.73;;;;;;;;;;4994584;28;20713;-64
2022/12/12 08:31:45;;;;;;;31.97;17.93;;;;;;;;;;5007849;28;20220;-64
2022/12/12 08:34:10;;;;;;;35.00;19.07;;;;;;;;;;5013342;28;20626;-64
2022/12/12 08:36:35;;;;;;;32.07;17.27;;;;;;;;;;5014201;28;20216;-64
2022/12/12 08:39:02;;;;;;;35.03;18.47;;;;;;;;;;5013251;28;20225;-63
2022/12/12 08:41:27;;;;;;;32.57;17.97;;;;;;;;;;5013463;28;20660;-64
2022/12/12 08:43:52;;;;;;;31.87;17.27;;;;;;;;;;5014171;28;20212;-64
2022/12/12 08:46:18;;;;;;;29.37;17.03;;;;;;;;;;5013160;28;20263;-64
2022/12/12 08:48:43;;;;;;;30.03;16.90;;;;;;;;;;5014207;28;20559;-64
2022/12/12 08:51:09;;;;;;;30.60;18.13;;;;;;;;;;5007413;28;20213;-65
2022/12/12 08:53:34;;;;;;;35.17;18.97;;;;;;;;;;5000723;28;20605;-65
2022/12/12 08:55:59;;;;;;;30.20;18.03;;;;;;;;;;4999481;28;20225;-65
2022/12/12 08:58:25;;;;;;;31.73;17.63;;;;;;;;;;4985794;28;20217;-64
2022/12/12 09:00:50;;;;;;;36.63;18.33;;;;;;;;;;5003201;28;20265;-65
2022/12/12 09:03:16;;;;;;;33.43;17.47;;;;;;;;;;5013553;28;20224;-65
2022/12/12 09:05:42;;;;;;;32.17;17.83;;;;;;;;;;5013806;28;20236;-64
2022/12/12 09:08:08;;;;;;;30.37;17.27;;;;;;;;;;5012730;28;20213;-64
2022/12/12 09:10:33;;;;;;;33.43;18.43;;;;;;;;;;5014203;28;20215;-64
2022/12/12 09:12:58;;;;;;;37.37;18.07;;;;;;;;;;5013297;28;20417;-64
2022/12/12 09:15:24;;;;;;;33.33;17.77;;;;;;;;;;5007944;28;20657;-64
2022/12/12 09:17:49;;;;;;;31.17;17.67;;;;;;;;;;4994108;28;20213;-64
2022/12/12 09:20:14;;;;;;;30.80;17.60;;;;;;;;;;4993718;28;20221;-64
2022/12/12 09:22:40;;;;;;;32.63;17.57;;;;;;;;;;4992993;28;20213;-64
2022/12/12 09:25:05;;;;;;;32.53;17.83;;;;;;;;;;4993730;28;20205;-64
2022/12/12 09:27:30;;;;;;;31.13;17.10;;;;;;;;;;4993797;28;20257;-65
2022/12/12 09:29:56;;;;;;;29.90;17.17;;;;;;;;;;4995317;28;20217;-64
2022/12/12 09:32:21;;;;;;;32.17;17.70;;;;;;;;;;5012934;28;20216;-64
2022/12/12 09:34:46;;;;;;;32.27;17.80;;;;;;;;;;5013535;28;20239;-65
2022/12/12 09:37:12;;;;;;;30.53;16.97;;;;;;;;;;5012033;28;20212;-65
2022/12/12 09:39:37;;;;;;;30.77;17.87;;;;;;;;;;5004047;28;20221;-65
2022/12/12 09:42:09;;;;;;;32.30;18.33;;;;;;;;;;5012558;28;20298;-64
2022/12/12 09:44:35;;;;;;;30.63;17.73;;;;;;;;;;4993169;28;20300;-65
2022/12/12 09:47:01;;;;;;;31.63;17.13;;;;;;;;;;4993375;28;20267;-63
2022/12/12 09:49:33;;;;;;;33.83;17.90;;;;;;;;;;4992550;28;20216;-66
2022/12/12 09:51:59;;;;;;;29.93;17.70;;;;;;;;;;4991560;28;20229;-65
2022/12/12 09:54:25;;;;;;;31.07;17.50;;;;;;;;;;4988687;28;20248;-66
2022/12/12 09:56:55;;;;;;;29.03;16.97;;;;;;;;;;4973213;28;20681;-66
2022/12/12 09:59:26;;;;;;;31.63;17.33;;;;;;;;;;4978732;28;22663;-65
2022/12/12 10:02:01;;;;;;;27.97;16.43;;;;;;;;;;4999179;28;20208;-66
2022/12/12 10:04:38;;;;;;;27.93;16.17;;;;;;;;;;5011991;28;20247;-66
2022/12/12 10:07:15;;;;;;;28.37;16.20;;;;;;;;;;5002762;28;20266;-66
2022/12/12 10:09:45;;;;;;;29.40;16.63;;;;;;;;;;5003732;28;20295;-66
2022/12/12 10:12:11;;;;;;;28.77;16.07;;;;;;;;;;5011658;28;20212;-66
2022/12/12 10:14:38;;;;;;;27.17;16.93;;;;;;;;;;5003462;28;20224;-66
2022/12/12 10:17:04;;;;;;;27.90;16.90;;;;;;;;;;4993210;28;20217;-65
2022/12/12 10:19:31;;;;;;;27.35;16.77;;;;;;;;;;4991187;28;20225;-66
2022/12/12 10:22:01;;;;;;;28.50;17.17;;;;;;;;;;4991612;28;20675;-66
2022/12/12 10:24:28;;;;;;;27.30;16.73;;;;;;;;;;4991710;28;20212;-66
2022/12/12 10:26:54;;;;;;;28.15;17.33;;;;;;;;;;4991078;28;20304;-66
2022/12/12 10:29:20;;;;;;;29.63;16.50;;;;;;;;;;4992416;28;20439;-66
2022/12/12 10:32:06;;;;;;;26.73;16.37;;;;;;;;;;4993203;28;20213;-66
2022/12/12 10:34:44;;;;;;;28.27;16.63;;;;;;;;;;4980448;28;20569;-66
2022/12/12 10:37:10;;;;;;;26.55;15.82;;;;;;;;;;4971710;28;20217;-66
2022/12/12 10:39:43;;;;;;;28.73;17.00;;;;;;;;;;4972659;28;20712;-65
2022/12/12 10:42:20;;;;;;;27.33;17.03;;;;;;;;;;5004980;28;20212;-66
2022/12/12 10:44:53;;;;;;;28.60;16.07;;;;;;;;;;4996880;28;20271;-66
2022/12/12 10:47:18;;;;;;;29.27;17.00;;;;;;;;;;5011431;28;20213;-67
2022/12/12 10:49:43;;;;;;;26.27;16.07;;;;;;;;;;5011162;28;20205;-67
2022/12/12 10:52:15;;;;;;;24.77;15.45;;;;;;;;;;5009691;28;20220;-66
2022/12/12 10:54:43;;;;;;;29.57;17.03;;;;;;;;;;4990833;28;20233;-66
2022/12/12 10:57:10;;;;;;;25.77;16.13;;;;;;;;;;5002037;28;20267;-66
2022/12/12 10:59:39;;;;;;;26.00;15.33;;;;;;;;;;4995310;28;20228;-66
2022/12/12 11:02:12;;;;;;;27.83;15.97;;;;;;;;;;4994171;28;20232;-65
2022/12/12 11:04:37;;;;;;;27.13;15.57;;;;;;;;;;4995336;28;20237;-66
2022/12/12 11:07:02;;;;;;;26.60;15.20;;;;;;;;;;4995238;28;20229;-66
2022/12/12 11:09:28;;;;;;;26.20;15.40;;;;;;;;;;5015593;28;20235;-66
2022/12/12 11:11:59;;;;;;;26.40;15.43;;;;;;;;;;5006806;28;20213;-66
2022/12/12 11:14:33;;;;;;;29.98;15.18;;;;;;;;;;5014770;28;20232;-66
2022/12/12 11:16:58;;;;;;;27.33;15.83;;;;;;;;;;4997381;28;20220;-66
2022/12/12 11:19:24;;;;;;;26.00;15.23;;;;;;;;;;4996012;28;20232;-66
2022/12/12 11:21:49;;;;;;;26.37;15.63;;;;;;;;;;4995567;28;20215;-66
2022/12/12 11:24:18;;;;;;;27.73;15.30;;;;;;;;;;4995778;28;20629;-66
2022/12/12 11:26:45;;;;;;;28.10;15.77;;;;;;;;;;5000521;28;20268;-67
2022/12/12 11:29:36;;;;;;;27.83;15.13;;;;;;;;;;4993822;28;20692;-66
2022/12/12 11:32:02;;;;;;;30.20;16.10;;;;;;;;;;4995499;28;20213;-66
2022/12/12 11:34:27;;;;;;;28.83;15.82;;;;;;;;;;4996022;28;20210;-67
2022/12/12 11:36:52;;;;;;;26.20;14.77;;;;;;;;;;4995010;28;20299;-67
2022/12/12 11:39:22;;;;;;;26.47;15.47;;;;;;;;;;4995513;28;20241;-66
2022/12/12 11:42:00;;;;;;;25.00;14.63;;;;;;;;;;4995874;28;20700;-66
2022/12/12 11:44:26;;;;;;;31.15;15.35;;;;;;;;;;4994419;28;20209;-67
2022/12/12 11:46:52;;;;;;;26.10;16.00;;;;;;;;;;5009880;28;20258;-67
2022/12/12 11:49:18;;;;;;;26.63;15.20;;;;;;;;;;5014169;28;20620;-67
2022/12/12 11:51:43;;;;;;;25.73;15.00;;;;;;;;;;5015017;28;20295;-67
2022/12/12 11:54:10;;;;;;;26.20;15.00;;;;;;;;;;5003333;28;20680;-66
2022/12/12 11:56:40;;;;;;;28.50;16.13;;;;;;;;;;4983957;28;20265;-67
2022/12/12 11:59:09;;;;;;;28.73;15.90;;;;;;;;;;4978652;28;20221;-66
2022/12/12 12:01:48;;;;;;;27.10;15.30;;;;;;;;;;5014863;28;20251;-67
2022/12/12 12:04:18;;;;;;;27.67;15.57;;;;;;;;;;5004411;28;20642;-68
2022/12/12 12:06:56;;;;;;;25.70;15.30;;;;;;;;;;5008745;28;20259;-67
2022/12/12 12:09:24;;;;;;;25.63;15.13;;;;;;;;;;5011034;28;20211;-66
2022/12/12 12:11:56;;;;;;;25.80;14.90;;;;;;;;;;5013913;28;20352;-66
2022/12/12 12:14:24;;;;;;;28.77;14.63;;;;;;;;;;5000950;28;20209;-66
2022/12/12 12:16:55;;;;;;;25.03;13.83;;;;;;;;;;4995004;28;20217;-66
2022/12/12 12:19:38;;;;;;;26.23;14.63;;;;;;;;;;4993979;28;20320;-66
2022/12/12 12:22:07;;;;;;;25.13;13.50;;;;;;;;;;4994842;28;20254;-66
2022/12/12 12:24:37;;;;;;;24.00;13.68;;;;;;;;;;4983425;28;20227;-66
2022/12/12 12:27:03;;;;;;;24.90;13.67;;;;;;;;;;5008613;28;20212;-66
2022/12/12 12:29:41;;;;;;;27.10;14.33;;;;;;;;;;4998086;28;20296;-66
2022/12/12 12:32:14;;;;;;;22.00;13.20;;;;;;;;;;4995792;28;20212;-68
2022/12/12 12:34:50;;;;;;;26.43;14.40;;;;;;;;;;5014320;28;20212;-66
2022/12/12 12:37:21;;;;;;;23.50;13.43;;;;;;;;;;5012881;28;20652;-66
2022/12/12 12:39:53;;;;;;;24.57;13.30;;;;;;;;;;5012444;28;20260;-67
2022/12/12 12:42:25;;;;;;;22.35;13.73;;;;;;;;;;4996989;28;20647;-66
2022/12/12 12:44:53;;;;;;;27.27;14.37;;;;;;;;;;4994777;28;20686;-66
2022/12/12 12:47:25;;;;;;;23.83;13.50;;;;;;;;;;4990126;28;20213;-66
2022/12/12 12:49:53;;;;;;;24.17;14.27;;;;;;;;;;4993241;28;20221;-67
2022/12/12 12:52:21;;;;;;;25.03;14.23;;;;;;;;;;4993892;28;20229;-67
2022/12/12 12:54:47;;;;;;;24.27;12.15;;;;;;;;;;5011202;28;20212;-66
2022/12/12 12:57:15;;;;;;;21.97;12.10;;;;;;;;;;4960122;28;20653;-67
2022/12/12 12:59:44;;;;;;;23.20;13.23;;;;;;;;;;4964696;28;20277;-66
2022/12/12 13:02:12;;;;;;;20.70;12.00;;;;;;;;;;4978442;28;20210;-66
2022/12/12 13:04:40;;;;;;;21.03;12.17;;;;;;;;;;4985282;28;20305;-66
2022/12/12 13:07:10;;;;;;;21.60;11.60;;;;;;;;;;4995786;28;20255;-66
2022/12/12 13:09:46;;;;;;;21.50;11.85;;;;;;;;;;4991000;28;20559;-67
2022/12/12 13:12:15;;;;;;;22.33;11.80;;;;;;;;;;4995451;28;20601;-66
2022/12/12 13:14:43;;;;;;;22.70;12.75;;;;;;;;;;4979025;28;20212;-67
2022/12/12 13:17:11;;;;;;;21.30;11.33;;;;;;;;;;4991364;28;20213;-67
2022/12/12 13:19:37;;;;;;;23.73;12.53;;;;;;;;;;4993370;28;20472;-69
2022/12/12 13:22:05;;;;;;;25.93;12.30;;;;;;;;;;5001276;28;20220;-66
2022/12/12 13:24:31;;;;;;;24.90;13.27;;;;;;;;;;4980808;28;20221;-67
2022/12/12 13:27:05;;;;;;;22.43;12.67;;;;;;;;;;4982807;28;20220;-67
2022/12/12 13:29:46;;;;;;;22.35;13.02;;;;;;;;;;4982070;28;20205;-67
2022/12/12 13:32:17;;;;;;;23.23;12.23;;;;;;;;;;4965303;28;20217;-66
2022/12/12 13:34:44;;;;;;;23.67;13.23;;;;;;;;;;4988867;28;20224;-67
2022/12/12 13:37:11;;;;;;;23.00;13.03;;;;;;;;;;4972669;28;20308;-67
2022/12/12 13:39:37;;;;;;;20.33;12.30;;;;;;;;;;4999925;28;20463;-67
2022/12/12 13:42:04;;;;;;;21.67;12.50;;;;;;;;;;4992431;28;20213;-66
2022/12/12 13:44:31;;;;;;;21.63;12.03;;;;;;;;;;4993789;28;20293;-67
2022/12/12 13:46:57;;;;;;;20.87;11.77;;;;;;;;;;4984976;28;20229;-67
2022/12/12 13:49:23;;;;;;;20.97;11.60;;;;;;;;;;4980473;28;20618;-67
2022/12/12 13:51:48;;;;;;;17.70;10.13;;;;;;;;;;4985987;28;20209;-67
2022/12/12 13:54:14;;;;;;;18.33;10.43;;;;;;;;;;4985610;28;20699;-67
2022/12/12 13:56:44;;;;;;;21.00;10.37;;;;;;;;;;4982096;28;20563;-67
2022/12/12 13:59:22;;;;;;;18.17;10.27;;;;;;;;;;4984045;28;20217;-67
2022/12/12 14:01:48;;;;;;;17.73;11.07;;;;;;;;;;4978369;28;20216;-67
2022/12/12 14:04:22;;;;;;;19.20;10.40;;;;;;;;;;4979634;28;20241;-66
2022/12/12 14:06:56;;;;;;;22.17;10.73;;;;;;;;;;4979073;28;20208;-67
2022/12/12 14:09:22;;;;;;;20.73;10.57;;;;;;;;;;4996591;28;20220;-67
2022/12/12 14:11:47;;;;;;;17.80;10.30;;;;;;;;;;5000898;28;20207;-67
2022/12/12 14:14:17;;;;;;;18.87;10.20;;;;;;;;;;4997438;28;20212;-66
2022/12/12 14:16:42;;;;;;;21.23;11.77;;;;;;;;;;4980150;28;20305;-66
2022/12/12 14:19:16;;;;;;;18.67;10.70;;;;;;;;;;4976260;28;20675;-66
2022/12/12 14:21:43;;;;;;;16.47;10.20;;;;;;;;;;4971463;28;20661;-66
2022/12/12 14:24:27;;;;;;;18.87;10.20;;;;;;;;;;4960907;28;20205;-65
2022/12/12 14:26:52;;;;;;;21.17;10.57;;;;;;;;;;4958401;28;20205;-66
2022/12/12 14:29:18;;;;;;;18.70;10.50;;;;;;;;;;4961380;28;20574;-66
2022/12/12 14:31:49;;;;;;;17.23;10.20;;;;;;;;;;4961755;28;20221;-66